This is the latest recevied weather packets stored in our database for station/object WX4LTG. If no packets are shown the sender has not sent any weather packets the latest 1 day(s).
| Time | Temp. | Humidity | Pressure | Rain* | Wind** | Luminosity | Snow |
|---|---|---|---|---|---|---|---|
| 1778032012 | 23.33° C | 27% | 1010.3 hPa | 0 mm | 1.79 m/s, 150° | 22 W/m² | - |
| 1778031708 | 23.33° C | 27% | 1010.3 hPa | 0 mm | 2.24 m/s, 245° | 26 W/m² | - |
| 1778031406 | 23.33° C | 27% | 1010.5 hPa | 0 mm | 3.13 m/s, 245° | 32 W/m² | - |
| 1778031103 | 23.33° C | 27% | 1010 hPa | 0 mm | 0.89 m/s, 206° | 36 W/m² | - |
| 1778030799 | 23.33° C | 27% | 1010.2 hPa | 0 mm | 5.81 m/s, 201° | 37 W/m² | - |
| 1778030496 | 23.33° C | 27% | 1010 hPa | 0 mm | 4.02 m/s, 242° | 44 W/m² | - |
| 1778030193 | 23.89° C | 26% | 1010.1 hPa | 0 mm | 0.45 m/s, 198° | 56 W/m² | - |
| 1778029889 | 23.89° C | 26% | 1009.8 hPa | 0 mm | 2.68 m/s, 197° | 72 W/m² | - |
| 1778029588 | 23.89° C | 26% | 1010 hPa | 0 mm | 3.58 m/s, 212° | 83 W/m² | - |
| 1778029285 | 23.89° C | 26% | 1009.8 hPa | 0 mm | 3.13 m/s, 233° | 93 W/m² | - |
| 1778028982 | 23.89° C | 26% | 1009.9 hPa | 0 mm | 1.34 m/s, 232° | 109 W/m² | - |
| 1778028678 | 23.89° C | 25% | 1010.1 hPa | 0 mm | 1.34 m/s, 179° | 42 W/m² | - |
| 1778028375 | 23.89° C | 26% | 1010 hPa | 0 mm | 1.79 m/s, 238° | 143 W/m² | - |
| 1778028072 | 23.89° C | 27% | 1010 hPa | 0 mm | 1.34 m/s, 188° | 49 W/m² | - |
| 1778027768 | 23.89° C | 27% | 1009.9 hPa | 0 mm | 2.24 m/s, 243° | 50 W/m² | - |
| 1778027465 | 24.44° C | 27% | 1009.8 hPa | 0 mm | 1.34 m/s, 191° | 158 W/m² | - |
| 1778027160 | 23.33° C | 28% | 1009.8 hPa | 0 mm | 0.89 m/s, 219° | 199 W/m² | - |
| 1778026857 | 23.89° C | 27% | 1009.8 hPa | 0 mm | 3.13 m/s, 236° | 56 W/m² | - |
| 1778026553 | 23.89° C | 28% | 1009.7 hPa | 0 mm | 2.24 m/s, 195° | 58 W/m² | - |
| 1778026250 | 24.44° C | 27% | 1009.7 hPa | 0 mm | 0 m/s | 56 W/m² | - |
| 1778025948 | 24.44° C | 26% | 1009.6 hPa | 0 mm | 2.24 m/s, 176° | 63 W/m² | - |
| 1778025645 | 23.89° C | 27% | 1009.8 hPa | 0 mm | 1.79 m/s, 213° | 286 W/m² | - |
| 1778025343 | 24.44° C | 26% | 1009.7 hPa | 0 mm | 4.92 m/s, 223° | 145 W/m² | - |
| 1778025040 | 23.89° C | 27% | 1009.7 hPa | 0 mm | 1.34 m/s, 342° | 324 W/m² | - |
| 1778024737 | 23.89° C | 27% | 1009.5 hPa | 0 mm | 0.89 m/s, 245° | 103 W/m² | - |
* Rain latest hour (hover to see other rain measurements)
** Current wind speed in m/s (hover to see current wind gust speed)